sensor_id;sensor_type;location;lat;lon;timestamp;pressure;altitude;pressure_sealevel;temperature;humidity
11444;BME280;5778;47.856;12.154;2023-08-07T00:00:47;96059.81;;;13.09;100.00
11444;BME280;5778;47.856;12.154;2023-08-07T00:03:14;96071.59;;;13.08;100.00
11444;BME280;5778;47.856;12.154;2023-08-07T00:05:45;96072.41;;;13.09;100.00
11444;BME280;5778;47.856;12.154;2023-08-07T00:08:12;96081.47;;;13.08;100.00
11444;BME280;5778;47.856;12.154;2023-08-07T00:10:40;96070.81;;;13.08;100.00
11444;BME280;5778;47.856;12.154;2023-08-07T00:13:07;96076.91;;;13.08;100.00
11444;BME280;5778;47.856;12.154;2023-08-07T00:15:36;96067.06;;;13.09;100.00
11444;BME280;5778;47.856;12.154;2023-08-07T00:18:04;96073.75;;;13.06;100.00
11444;BME280;5778;47.856;12.154;2023-08-07T00:20:31;96086.53;;;13.04;100.00
11444;BME280;5778;47.856;12.154;2023-08-07T00:22:58;96085.75;;;13.04;100.00
11444;BME280;5778;47.856;12.154;2023-08-07T00:25:25;96085.75;;;13.04;100.00
11444;BME280;5778;47.856;12.154;2023-08-07T00:27:54;96082.03;;;13.00;100.00
11444;BME280;5778;47.856;12.154;2023-08-07T00:30:21;96093.78;;;12.99;100.00
11444;BME280;5778;47.856;12.154;2023-08-07T00:32:48;96083.91;;;12.99;100.00
11444;BME280;5778;47.856;12.154;2023-08-07T00:35:15;96076.44;;;12.96;100.00
11444;BME280;5778;47.856;12.154;2023-08-07T00:37:42;96095.34;;;12.95;100.00
11444;BME280;5778;47.856;12.154;2023-08-07T00:40:10;96092.44;;;12.91;100.00
11444;BME280;5778;47.856;12.154;2023-08-07T00:42:37;96086.59;;;12.89;100.00
11444;BME280;5778;47.856;12.154;2023-08-07T00:45:07;96083.66;;;12.86;100.00
11444;BME280;5778;47.856;12.154;2023-08-07T00:47:34;96063.41;;;12.80;100.00
11444;BME280;5778;47.856;12.154;2023-08-07T00:50:04;96077.81;;;12.74;100.00
11444;BME280;5778;47.856;12.154;2023-08-07T00:52:32;96078.88;;;12.68;100.00
11444;BME280;5778;47.856;12.154;2023-08-07T00:54:59;96089.56;;;12.58;100.00
11444;BME280;5778;47.856;12.154;2023-08-07T00:57:27;96090.13;;;12.50;100.00
11444;BME280;5778;47.856;12.154;2023-08-07T00:59:54;96085.34;;;12.42;100.00
11444;BME280;5778;47.856;12.154;2023-08-07T01:02:22;96073.88;;;12.41;100.00
11444;BME280;5778;47.856;12.154;2023-08-07T01:04:50;96091.47;;;12.37;100.00
11444;BME280;5778;47.856;12.154;2023-08-07T01:07:17;96090.69;;;12.37;100.00
11444;BME280;5778;47.856;12.154;2023-08-07T01:09:44;96060.56;;;12.31;100.00
11444;BME280;5778;47.856;12.154;2023-08-07T01:12:15;96092.56;;;12.31;100.00
11444;BME280;5778;47.856;12.154;2023-08-07T01:14:49;96093.38;;;12.27;100.00
11444;BME280;5778;47.856;12.154;2023-08-07T01:17:20;96092.81;;;12.20;100.00
11444;BME280;5778;47.856;12.154;2023-08-07T01:19:51;96086.97;;;12.18;100.00
11444;BME280;5778;47.856;12.154;2023-08-07T01:22:20;96096.84;;;12.17;100.00
11444;BME280;5778;47.856;12.154;2023-08-07T01:24:50;96101.88;;;12.14;100.00
11444;BME280;5778;47.856;12.154;2023-08-07T01:27:27;96099.22;;;12.09;100.00
11444;BME280;5778;47.856;12.154;2023-08-07T01:30:10;96111.22;;;12.06;100.00
11444;BME280;5778;47.856;12.154;2023-08-07T01:32:45;96103.50;;;12.00;100.00
11444;BME280;5778;47.856;12.154;2023-08-07T01:35:16;96109.34;;;11.97;100.00
11444;BME280;5778;47.856;12.154;2023-08-07T01:37:45;96100.31;;;11.93;100.00
11444;BME280;5778;47.856;12.154;2023-08-07T01:40:13;96106.41;;;11.93;100.00
11444;BME280;5778;47.856;12.154;2023-08-07T01:42:41;96110.94;;;11.88;100.00
11444;BME280;5778;47.856;12.154;2023-08-07T01:45:09;96103.75;;;11.88;100.00
11444;BME280;5778;47.856;12.154;2023-08-07T01:47:36;96103.75;;;11.88;100.00
11444;BME280;5778;47.856;12.154;2023-08-07T01:50:05;96115.47;;;11.87;100.00
11444;BME280;5778;47.856;12.154;2023-08-07T01:52:32;96108.28;;;11.83;100.00
11444;BME280;5778;47.856;12.154;2023-08-07T01:55:01;96112.53;;;11.79;100.00
11444;BME280;5778;47.856;12.154;2023-08-07T01:57:28;96112.00;;;11.72;100.00
11444;BME280;5778;47.856;12.154;2023-08-07T01:59:56;96126.38;;;11.66;100.00
11444;BME280;5778;47.856;12.154;2023-08-07T02:02:23;96110.84;;;11.58;100.00
11444;BME280;5778;47.856;12.154;2023-08-07T02:04:50;96112.97;;;11.51;100.00
11444;BME280;5778;47.856;12.154;2023-08-07T02:07:17;96120.94;;;11.46;100.00
11444;BME280;5778;47.856;12.154;2023-08-07T02:12:12;96117.19;;;11.37;100.00
11444;BME280;5778;47.856;12.154;2023-08-07T02:14:39;96123.03;;;11.34;100.00
11444;BME280;5778;47.856;12.154;2023-08-07T02:17:06;96115.56;;;11.36;100.00
11444;BME280;5778;47.856;12.154;2023-08-07T02:19:34;96115.84;;;11.34;100.00
11444;BME280;5778;47.856;12.154;2023-08-07T02:22:01;96114.25;;;11.38;100.00
11444;BME280;5778;47.856;12.154;2023-08-07T02:24:29;96113.97;;;11.35;100.00
11444;BME280;5778;47.856;12.154;2023-08-07T02:26:56;96123.03;;;11.34;100.00
11444;BME280;5778;47.856;12.154;2023-08-07T02:29:24;96128.09;;;11.30;100.00
11444;BME280;5778;47.856;12.154;2023-08-07T02:31:51;96122.47;;;11.27;100.00
11444;BME280;5778;47.856;12.154;2023-08-07T02:34:18;96130.41;;;11.22;100.00
11444;BME280;5778;47.856;12.154;2023-08-07T02:36:45;96126.94;;;11.16;100.00
11444;BME280;5778;47.856;12.154;2023-08-07T02:39:13;96123.47;;;11.11;100.00
11444;BME280;5778;47.856;12.154;2023-08-07T02:41:40;96130.38;;;11.07;100.00
11444;BME280;5778;47.856;12.154;2023-08-07T02:44:07;96132.22;;;11.06;100.00
11444;BME280;5778;47.856;12.154;2023-08-07T02:46:35;96125.03;;;11.02;100.00
11444;BME280;5778;47.856;12.154;2023-08-07T02:49:02;96138.59;;;11.00;100.00
11444;BME280;5778;47.856;12.154;2023-08-07T02:51:31;96129.78;;;11.00;100.00
11444;BME280;5778;47.856;12.154;2023-08-07T02:53:58;96130.84;;;10.99;100.00
11444;BME280;5778;47.856;12.154;2023-08-07T02:56:25;96134.34;;;10.99;100.00
11444;BME280;5778;47.856;12.154;2023-08-07T02:58:52;96141.78;;;11.02;100.00
11444;BME280;5778;47.856;12.154;2023-08-07T03:01:20;96136.75;;;11.01;100.00
11444;BME280;5778;47.856;12.154;2023-08-07T03:03:48;96135.66;;;10.97;100.00
11444;BME280;5778;47.856;12.154;2023-08-07T03:06:15;96133.50;;;10.99;100.00
11444;BME280;5778;47.856;12.154;2023-08-07T03:08:42;96141.50;;;10.99;100.00
11444;BME280;5778;47.856;12.154;2023-08-07T03:11:09;96132.97;;;10.97;100.00
11444;BME280;5778;47.856;12.154;2023-08-07T03:13:36;96139.88;;;10.93;100.00
11444;BME280;5778;47.856;12.154;2023-08-07T03:16:05;96147.88;;;10.98;100.00
11444;BME280;5778;47.856;12.154;2023-08-07T03:18:33;96149.50;;;11.04;100.00
11444;BME280;5778;47.856;12.154;2023-08-07T03:21:02;96149.00;;;11.07;100.00
11444;BME280;5778;47.856;12.154;2023-08-07T03:23:29;96148.75;;;11.13;100.00
11444;BME280;5778;47.856;12.154;2023-08-07T03:26:03;96149.81;;;11.12;100.00
11444;BME280;5778;47.856;12.154;2023-08-07T03:28:30;96160.50;;;11.22;100.00
11444;BME280;5778;47.856;12.154;2023-08-07T03:30:57;96168.50;;;11.22;100.00
11444;BME280;5778;47.856;12.154;2023-08-07T03:33:25;96162.66;;;11.25;100.00
11444;BME280;5778;47.856;12.154;2023-08-07T03:35:52;96155.47;;;11.26;100.00
11444;BME280;5778;47.856;12.154;2023-08-07T03:38:21;96162.94;;;11.29;100.00
11444;BME280;5778;47.856;12.154;2023-08-07T03:40:51;96162.94;;;11.29;100.00
11444;BME280;5778;47.856;12.154;2023-08-07T03:43:18;96165.91;;;11.37;100.00
11444;BME280;5778;47.856;12.154;2023-08-07T03:45:45;96154.69;;;11.35;100.00
11444;BME280;5778;47.856;12.154;2023-08-07T03:48:13;96165.09;;;11.37;100.00
11444;BME280;5778;47.856;12.154;2023-08-07T03:50:41;96166.50;;;11.54;100.00
11444;BME280;5778;47.856;12.154;2023-08-07T03:53:07;96163.81;;;11.49;100.00
11444;BME280;5778;47.856;12.154;2023-08-07T03:55:42;96157.69;;;11.49;100.00
11444;BME280;5778;47.856;12.154;2023-08-07T03:58:11;96164.91;;;11.53;100.00
11444;BME280;5778;47.856;12.154;2023-08-07T04:00:38;96174.22;;;11.56;100.00
11444;BME280;5778;47.856;12.154;2023-08-07T04:03:05;96181.22;;;11.67;100.00
11444;BME280;5778;47.856;12.154;2023-08-07T04:05:33;96180.19;;;11.73;100.00
11444;BME280;5778;47.856;12.154;2023-08-07T04:08:00;96173.25;;;11.72;100.00
11444;BME280;5778;47.856;12.154;2023-08-07T04:10:27;96175.34;;;11.70;100.00
11444;BME280;5778;47.856;12.154;2023-08-07T04:12:55;96174.56;;;11.69;100.00
11444;BME280;5778;47.856;12.154;2023-08-07T04:15:22;96181.78;;;11.74;100.00
11444;BME280;5778;47.856;12.154;2023-08-07T04:17:49;96177.00;;;11.81;100.00
11444;BME280;5778;47.856;12.154;2023-08-07T04:20:16;96181.28;;;11.82;100.00
11444;BME280;5778;47.856;12.154;2023-08-07T04:22:45;96177.84;;;11.91;100.00
11444;BME280;5778;47.856;12.154;2023-08-07T04:25:12;96188.22;;;11.88;100.00
11444;BME280;5778;47.856;12.154;2023-08-07T04:27:39;96187.66;;;11.86;100.00
11444;BME280;5778;47.856;12.154;2023-08-07T04:30:08;96190.88;;;11.83;100.00
11444;BME280;5778;47.856;12.154;2023-08-07T04:32:35;96189.78;;;11.84;100.00
11444;BME280;5778;47.856;12.154;2023-08-07T04:35:03;96198.84;;;11.83;100.00
11444;BME280;5778;47.856;12.154;2023-08-07T04:37:30;96192.50;;;11.94;100.00
11444;BME280;5778;47.856;12.154;2023-08-07T04:39:57;96198.59;;;11.89;100.00
11444;BME280;5778;47.856;12.154;2023-08-07T04:42:26;96196.47;;;11.91;100.00
11444;BME280;5778;47.856;12.154;2023-08-07T04:44:53;96187.41;;;11.92;100.00
11444;BME280;5778;47.856;12.154;2023-08-07T04:47:21;96192.19;;;11.95;100.00
11444;BME280;5778;47.856;12.154;2023-08-07T04:49:48;96194.63;;;11.97;100.00
11444;BME280;5778;47.856;12.154;2023-08-07T04:52:15;96197.56;;;12.00;100.00
11444;BME280;5778;47.856;12.154;2023-08-07T04:54:42;96199.44;;;12.00;100.00
11444;BME280;5778;47.856;12.154;2023-08-07T04:57:09;96195.94;;;11.99;100.00
11444;BME280;5778;47.856;12.154;2023-08-07T04:59:36;96190.88;;;12.03;100.00
11444;BME280;5778;47.856;12.154;2023-08-07T05:02:03;96193.03;;;12.06;100.00
11444;BME280;5778;47.856;12.154;2023-08-07T05:04:32;96194.38;;;12.08;100.00
11444;BME280;5778;47.856;12.154;2023-08-07T05:06:58;96191.97;;;12.12;100.00
11444;BME280;5778;47.856;12.154;2023-08-07T05:09:25;96192.53;;;12.19;100.00
11444;BME280;5778;47.856;12.154;2023-08-07T05:11:52;96195.75;;;12.21;100.00
11444;BME280;5778;47.856;12.154;2023-08-07T05:14:19;96197.06;;;12.23;100.00
11444;BME280;5778;47.856;12.154;2023-08-07T05:16:47;96199.44;;;12.25;100.00
11444;BME280;5778;47.856;12.154;2023-08-07T05:19:14;96204.78;;;12.25;100.00
11444;BME280;5778;47.856;12.154;2023-08-07T05:21:43;96203.19;;;12.29;100.00
11444;BME280;5778;47.856;12.154;2023-08-07T05:24:09;96210.13;;;12.30;100.00
11444;BME280;5778;47.856;12.154;2023-08-07T05:26:37;96208.00;;;12.32;100.00
11444;BME280;5778;47.856;12.154;2023-08-07T05:29:06;96210.13;;;12.35;100.00
11444;BME280;5778;47.856;12.154;2023-08-07T05:31:33;96206.13;;;12.37;100.00
11444;BME280;5778;47.856;12.154;2023-08-07T05:34:00;96218.16;;;12.40;100.00
11444;BME280;5778;47.856;12.154;2023-08-07T05:36:27;96221.63;;;12.45;100.00
11444;BME280;5778;47.856;12.154;2023-08-07T05:38:56;96222.41;;;12.46;100.00
11444;BME280;5778;47.856;12.154;2023-08-07T05:41:24;96235.75;;;12.51;100.00
11444;BME280;5778;47.856;12.154;2023-08-07T05:43:50;96227.75;;;12.51;100.00
11444;BME280;5778;47.856;12.154;2023-08-07T05:46:17;96234.16;;;12.55;100.00
11444;BME280;5778;47.856;12.154;2023-08-07T05:48:44;96236.03;;;12.54;100.00
11444;BME280;5778;47.856;12.154;2023-08-07T05:51:11;96235.75;;;12.56;100.00
11444;BME280;5778;47.856;12.154;2023-08-07T05:53:38;96232.31;;;12.55;100.00
11444;BME280;5778;47.856;12.154;2023-08-07T05:56:07;96250.69;;;12.57;100.00
11444;BME280;5778;47.856;12.154;2023-08-07T05:58:33;96250.69;;;12.57;100.00
11444;BME280;5778;47.856;12.154;2023-08-07T06:01:00;96242.44;;;12.58;100.00
11444;BME280;5778;47.856;12.154;2023-08-07T06:03:27;96258.19;;;12.60;100.00
11444;BME280;5778;47.856;12.154;2023-08-07T06:05:54;96271.78;;;12.58;100.00
11444;BME280;5778;47.856;12.154;2023-08-07T06:08:21;96251.75;;;12.56;100.00
11444;BME280;5778;47.856;12.154;2023-08-07T06:10:48;96261.09;;;12.58;100.00
11444;BME280;5778;47.856;12.154;2023-08-07T06:13:16;96261.09;;;12.58;100.00
11444;BME280;5778;47.856;12.154;2023-08-07T06:15:43;96284.28;;;12.58;100.00
11444;BME280;5778;47.856;12.154;2023-08-07T06:18:10;96261.63;;;12.60;100.00
11444;BME280;5778;47.856;12.154;2023-08-07T06:20:37;96260.28;;;12.63;100.00
11444;BME280;5778;47.856;12.154;2023-08-07T06:23:04;96272.84;;;12.62;100.00
11444;BME280;5778;47.856;12.154;2023-08-07T06:25:31;96265.38;;;12.64;100.00
11444;BME280;5778;47.856;12.154;2023-08-07T06:27:59;96269.38;;;12.67;100.00
11444;BME280;5778;47.856;12.154;2023-08-07T06:30:27;96261.38;;;12.67;100.00
11444;BME280;5778;47.856;12.154;2023-08-07T06:32:54;96276.06;;;12.69;100.00
11444;BME280;5778;47.856;12.154;2023-08-07T06:35:21;96281.13;;;12.71;100.00
11444;BME280;5778;47.856;12.154;2023-08-07T06:37:48;96278.72;;;12.69;100.00
11444;BME280;5778;47.856;12.154;2023-08-07T06:40:15;96281.66;;;12.78;100.00
11444;BME280;5778;47.856;12.154;2023-08-07T06:42:42;96281.91;;;12.81;100.00
11444;BME280;5778;47.856;12.154;2023-08-07T06:45:09;96279.00;;;12.78;100.00
11444;BME280;5778;47.856;12.154;2023-08-07T06:47:38;96284.31;;;12.83;100.00
11444;BME280;5778;47.856;12.154;2023-08-07T06:50:05;96286.47;;;12.81;100.00
11444;BME280;5778;47.856;12.154;2023-08-07T06:52:32;96284.06;;;12.84;100.00
11444;BME280;5778;47.856;12.154;2023-08-07T06:54:59;96284.84;;;12.85;100.00
11444;BME280;5778;47.856;12.154;2023-08-07T06:57:26;96290.75;;;12.87;100.00
11444;BME280;5778;47.856;12.154;2023-08-07T06:59:53;96279.81;;;12.88;100.00
11444;BME280;5778;47.856;12.154;2023-08-07T07:02:20;96301.47;;;12.97;100.00
11444;BME280;5778;47.856;12.154;2023-08-07T07:04:48;96287.81;;;12.98;100.00
11444;BME280;5778;47.856;12.154;2023-08-07T07:07:15;96290.78;;;13.02;100.00
11444;BME280;5778;47.856;12.154;2023-08-07T07:09:42;96282.78;;;13.02;100.00
11444;BME280;5778;47.856;12.154;2023-08-07T07:12:09;96285.69;;;13.05;100.00
11444;BME280;5778;47.856;12.154;2023-08-07T07:14:36;96291.03;;;13.15;100.00
11444;BME280;5778;47.856;12.154;2023-08-07T07:17:03;96299.84;;;13.16;100.00
11444;BME280;5778;47.856;12.154;2023-08-07T07:19:30;96302.25;;;13.22;100.00
11444;BME280;5778;47.856;12.154;2023-08-07T07:21:58;96301.69;;;13.25;100.00
11444;BME280;5778;47.856;12.154;2023-08-07T07:24:25;96296.91;;;13.32;100.00
11444;BME280;5778;47.856;12.154;2023-08-07T07:26:53;96304.34;;;13.35;100.00
11444;BME280;5778;47.856;12.154;2023-08-07T07:29:20;96302.47;;;13.46;100.00
11444;BME280;5778;47.856;12.154;2023-08-07T07:31:47;96303.25;;;13.46;100.00
11444;BME280;5778;47.856;12.154;2023-08-07T07:34:15;96301.94;;;13.49;100.00
11444;BME280;5778;47.856;12.154;2023-08-07T07:36:42;96340.13;;;13.59;100.00
11444;BME280;5778;47.856;12.154;2023-08-07T07:39:11;96309.66;;;13.70;100.00
11444;BME280;5778;47.856;12.154;2023-08-07T07:41:38;96304.53;;;13.79;100.00
11444;BME280;5778;47.856;12.154;2023-08-07T07:44:05;96309.34;;;13.72;100.00
11444;BME280;5778;47.856;12.154;2023-08-07T07:46:33;96313.09;;;13.76;100.00
11444;BME280;5778;47.856;12.154;2023-08-07T07:49:00;96317.34;;;13.82;100.00
11444;BME280;5778;47.856;12.154;2023-08-07T07:51:29;96318.94;;;13.78;100.00
11444;BME280;5778;47.856;12.154;2023-08-07T07:53:57;96310.66;;;13.84;100.00
11444;BME280;5778;47.856;12.154;2023-08-07T07:56:25;96320.00;;;13.92;100.00
11444;BME280;5778;47.856;12.154;2023-08-07T07:58:52;96325.81;;;14.09;100.00
11444;BME280;5778;47.856;12.154;2023-08-07T08:01:19;96326.84;;;14.18;100.00
11444;BME280;5778;47.856;12.154;2023-08-07T08:03:47;96316.13;;;14.33;100.00
11444;BME280;5778;47.856;12.154;2023-08-07T08:06:14;96319.28;;;14.40;100.00
11444;BME280;5778;47.856;12.154;2023-08-07T08:08:42;96347.34;;;14.47;100.00
11444;BME280;5778;47.856;12.154;2023-08-07T08:11:09;96304.38;;;14.67;100.00
11444;BME280;5778;47.856;12.154;2023-08-07T08:13:37;96327.75;;;14.57;100.00
11444;BME280;5778;47.856;12.154;2023-08-07T08:16:06;96341.28;;;14.75;100.00
11444;BME280;5778;47.856;12.154;2023-08-07T08:18:33;96327.28;;;14.88;100.00
11444;BME280;5778;47.856;12.154;2023-08-07T08:21:00;96334.38;;;14.69;100.00
11444;BME280;5778;47.856;12.154;2023-08-07T08:23:27;96335.19;;;14.65;100.00
11444;BME280;5778;47.856;12.154;2023-08-07T08:25:54;96339.53;;;14.56;100.00
11444;BME280;5778;47.856;12.154;2023-08-07T08:28:21;96329.81;;;14.65;100.00
11444;BME280;5778;47.856;12.154;2023-08-07T08:30:50;96330.25;;;14.87;100.00
11444;BME280;5778;47.856;12.154;2023-08-07T08:33:17;96332.66;;;14.83;100.00
11444;BME280;5778;47.856;12.154;2023-08-07T08:35:44;96339.69;;;14.74;100.00
11444;BME280;5778;47.856;12.154;2023-08-07T08:38:11;96347.91;;;14.88;100.00
11444;BME280;5778;47.856;12.154;2023-08-07T08:40:38;96348.56;;;14.65;100.00
11444;BME280;5778;47.856;12.154;2023-08-07T08:43:05;96341.84;;;14.67;100.00
11444;BME280;5778;47.856;12.154;2023-08-07T08:45:33;96345.84;;;14.70;100.00
11444;BME280;5778;47.856;12.154;2023-08-07T08:48:07;96361.41;;;14.68;100.00
11444;BME280;5778;47.856;12.154;2023-08-07T08:50:38;96349.13;;;14.62;100.00
11444;BME280;5778;47.856;12.154;2023-08-07T08:53:06;96352.31;;;14.64;100.00
11444;BME280;5778;47.856;12.154;2023-08-07T08:55:35;96358.47;;;14.69;100.00
11444;BME280;5778;47.856;12.154;2023-08-07T08:58:02;96351.72;;;14.77;100.00
11444;BME280;5778;47.856;12.154;2023-08-07T09:00:30;96346.78;;;14.94;100.00
11444;BME280;5778;47.856;12.154;2023-08-07T09:03:00;96366.59;;;14.98;100.00
11444;BME280;5778;47.856;12.154;2023-08-07T09:05:29;96350.78;;;14.96;100.00
11444;BME280;5778;47.856;12.154;2023-08-07T09:07:56;96360.25;;;14.84;100.00
11444;BME280;5778;47.856;12.154;2023-08-07T09:10:24;96368.28;;;14.84;100.00
11444;BME280;5778;47.856;12.154;2023-08-07T09:12:54;96375.00;;;14.76;100.00
11444;BME280;5778;47.856;12.154;2023-08-07T09:15:24;96367.59;;;14.63;100.00
11444;BME280;5778;47.856;12.154;2023-08-07T09:17:54;96366.25;;;14.66;100.00
11444;BME280;5778;47.856;12.154;2023-08-07T09:20:21;96366.53;;;14.64;100.00
11444;BME280;5778;47.856;12.154;2023-08-07T09:22:50;96373.50;;;14.60;100.00
11444;BME280;5778;47.856;12.154;2023-08-07T09:25:26;96373.22;;;14.62;100.00
11444;BME280;5778;47.856;12.154;2023-08-07T09:27:55;96371.03;;;14.69;100.00
11444;BME280;5778;47.856;12.154;2023-08-07T09:30:26;96364.63;;;14.65;100.00
11444;BME280;5778;47.856;12.154;2023-08-07T09:32:54;96370.78;;;14.65;100.00
11444;BME280;5778;47.856;12.154;2023-08-07T09:35:20;96384.53;;;14.49;100.00
11444;BME280;5778;47.856;12.154;2023-08-07T09:37:47;96359.06;;;14.51;100.00
11444;BME280;5778;47.856;12.154;2023-08-07T09:40:16;96371.09;;;14.54;100.00
11444;BME280;5778;47.856;12.154;2023-08-07T09:42:43;96367.31;;;14.65;100.00
11444;BME280;5778;47.856;12.154;2023-08-07T09:45:20;96372.56;;;14.80;100.00
11444;BME280;5778;47.856;12.154;2023-08-07T09:47:57;96376.34;;;14.79;100.00
11444;BME280;5778;47.856;12.154;2023-08-07T09:50:24;96370.50;;;14.72;100.00
11444;BME280;5778;47.856;12.154;2023-08-07T09:52:52;96376.75;;;14.52;100.00
11444;BME280;5778;47.856;12.154;2023-08-07T09:55:21;96378.88;;;14.50;100.00
11444;BME280;5778;47.856;12.154;2023-08-07T09:57:50;96372.97;;;14.58;100.00
11444;BME280;5778;47.856;12.154;2023-08-07T10:00:18;96380.75;;;14.55;100.00
11444;BME280;5778;47.856;12.154;2023-08-07T10:02:46;96397.91;;;14.49;100.00
11444;BME280;5778;47.856;12.154;2023-08-07T10:05:14;96398.44;;;14.51;100.00
11444;BME280;5778;47.856;12.154;2023-08-07T10:07:41;96408.06;;;14.52;100.00
11444;BME280;5778;47.856;12.154;2023-08-07T10:10:09;96398.41;;;14.56;100.00
11444;BME280;5778;47.856;12.154;2023-08-07T10:12:38;96392.56;;;14.49;100.00
11444;BME280;5778;47.856;12.154;2023-08-07T10:15:06;96389.63;;;14.40;100.00
11444;BME280;5778;47.856;12.154;2023-08-07T10:17:35;96392.75;;;14.62;100.00
11444;BME280;5778;47.856;12.154;2023-08-07T10:20:02;96391.38;;;14.65;100.00
11444;BME280;5778;47.856;12.154;2023-08-07T10:22:30;96381.22;;;14.67;100.00
11444;BME280;5778;47.856;12.154;2023-08-07T10:25:01;96387.72;;;14.99;100.00
11444;BME280;5778;47.856;12.154;2023-08-07T10:27:32;96394.72;;;14.95;100.00
11444;BME280;5778;47.856;12.154;2023-08-07T10:30:05;96389.88;;;14.97;100.00
11444;BME280;5778;47.856;12.154;2023-08-07T10:32:34;96392.53;;;15.02;100.00
11444;BME280;5778;47.856;12.154;2023-08-07T10:35:03;96404.47;;;15.20;100.00
11444;BME280;5778;47.856;12.154;2023-08-07T10:37:39;96402.78;;;15.29;100.00
11444;BME280;5778;47.856;12.154;2023-08-07T10:40:08;96406.75;;;14.98;100.00
11444;BME280;5778;47.856;12.154;2023-08-07T10:42:56;96406.03;;;14.82;100.00
11444;BME280;5778;47.856;12.154;2023-08-07T10:45:26;96391.03;;;14.86;100.00
11444;BME280;5778;47.856;12.154;2023-08-07T10:47:57;96398.97;;;15.01;100.00
11444;BME280;5778;47.856;12.154;2023-08-07T10:50:29;96387.09;;;15.12;100.00
11444;BME280;5778;47.856;12.154;2023-08-07T10:52:56;96385.97;;;15.23;100.00
11444;BME280;5778;47.856;12.154;2023-08-07T10:55:26;96380.94;;;15.12;100.00
11444;BME280;5778;47.856;12.154;2023-08-07T10:57:53;96388.91;;;15.22;100.00
11444;BME280;5778;47.856;12.154;2023-08-07T11:00:27;96374.69;;;15.21;100.00
11444;BME280;5778;47.856;12.154;2023-08-07T11:02:57;96388.13;;;15.16;100.00
11444;BME280;5778;47.856;12.154;2023-08-07T11:05:24;96385.34;;;15.36;100.00
11444;BME280;5778;47.856;12.154;2023-08-07T11:07:53;96385.56;;;15.40;100.00
11444;BME280;5778;47.856;12.154;2023-08-07T11:10:20;96378.13;;;15.37;100.00
11444;BME280;5778;47.856;12.154;2023-08-07T11:12:48;96376.44;;;15.41;100.00
11444;BME280;5778;47.856;12.154;2023-08-07T11:15:15;96380.25;;;15.35;100.00
11444;BME280;5778;47.856;12.154;2023-08-07T11:17:44;96374.59;;;15.41;100.00
11444;BME280;5778;47.856;12.154;2023-08-07T11:20:11;96373.66;;;15.56;100.00
11444;BME280;5778;47.856;12.154;2023-08-07T11:22:39;96363.84;;;15.75;100.00
11444;BME280;5778;47.856;12.154;2023-08-07T11:25:07;96368.06;;;15.81;100.00
11444;BME280;5778;47.856;12.154;2023-08-07T11:27:39;96358.03;;;15.91;100.00
11444;BME280;5778;47.856;12.154;2023-08-07T11:30:11;96356.84;;;15.74;100.00
11444;BME280;5778;47.856;12.154;2023-08-07T11:32:38;96349.53;;;16.08;100.00
11444;BME280;5778;47.856;12.154;2023-08-07T11:35:08;96347.63;;;16.55;100.00
11444;BME280;5778;47.856;12.154;2023-08-07T11:37:35;96344.78;;;16.47;100.00
11444;BME280;5778;47.856;12.154;2023-08-07T11:40:03;96348.50;;;16.51;100.00
11444;BME280;5778;47.856;12.154;2023-08-07T11:42:30;96345.25;;;16.07;100.00
11444;BME280;5778;47.856;12.154;2023-08-07T11:44:57;96345.69;;;15.90;100.00
11444;BME280;5778;47.856;12.154;2023-08-07T11:47:24;96353.84;;;15.52;100.00
11444;BME280;5778;47.856;12.154;2023-08-07T11:49:52;96352.91;;;15.38;100.00
11444;BME280;5778;47.856;12.154;2023-08-07T11:52:21;96362.03;;;15.37;100.00
11444;BME280;5778;47.856;12.154;2023-08-07T11:54:49;96391.59;;;15.22;100.00
11444;BME280;5778;47.856;12.154;2023-08-07T11:57:17;96387.88;;;15.13;100.00
11444;BME280;5778;47.856;12.154;2023-08-07T11:59:49;96399.34;;;14.80;100.00
11444;BME280;5778;47.856;12.154;2023-08-07T12:02:16;96387.84;;;14.79;100.00
11444;BME280;5778;47.856;12.154;2023-08-07T12:04:43;96380.16;;;14.68;100.00
11444;BME280;5778;47.856;12.154;2023-08-07T12:07:11;96395.34;;;14.77;100.00
11444;BME280;5778;47.856;12.154;2023-08-07T12:09:41;96409.38;;;15.03;100.00
11444;BME280;5778;47.856;12.154;2023-08-07T12:12:10;96399.72;;;15.07;100.00
11444;BME280;5778;47.856;12.154;2023-08-07T12:14:38;96396.75;;;15.13;100.00
11444;BME280;5778;47.856;12.154;2023-08-07T12:17:08;96399.41;;;15.52;100.00
11444;BME280;5778;47.856;12.154;2023-08-07T12:19:38;96383.75;;;15.69;100.00
11444;BME280;5778;47.856;12.154;2023-08-07T12:22:10;96408.09;;;16.24;100.00
11444;BME280;5778;47.856;12.154;2023-08-07T12:24:37;96396.50;;;16.76;100.00
11444;BME280;5778;47.856;12.154;2023-08-07T12:27:07;96391.78;;;16.68;100.00
11444;BME280;5778;47.856;12.154;2023-08-07T12:29:34;96404.34;;;16.91;100.00
11444;BME280;5778;47.856;12.154;2023-08-07T12:32:01;96383.59;;;16.78;100.00
11444;BME280;5778;47.856;12.154;2023-08-07T12:34:28;96391.06;;;16.99;100.00
11444;BME280;5778;47.856;12.154;2023-08-07T12:36:55;96374.81;;;17.09;100.00
11444;BME280;5778;47.856;12.154;2023-08-07T12:39:22;96388.38;;;17.18;100.00
11444;BME280;5778;47.856;12.154;2023-08-07T12:41:49;96379.00;;;17.34;100.00
11444;BME280;5778;47.856;12.154;2023-08-07T12:44:18;96390.47;;;17.58;100.00
11444;BME280;5778;47.856;12.154;2023-08-07T12:46:44;96383.66;;;17.79;100.00
11444;BME280;5778;47.856;12.154;2023-08-07T12:49:11;96380.94;;;17.65;100.00
11444;BME280;5778;47.856;12.154;2023-08-07T12:51:39;96374.75;;;17.65;100.00
11444;BME280;5778;47.856;12.154;2023-08-07T12:56:32;96386.47;;;17.37;100.00
11444;BME280;5778;47.856;12.154;2023-08-07T12:58:59;96382.41;;;17.39;100.00